sensor_id;sensor_type;location;lat;lon;timestamp;pressure;altitude;pressure_sealevel;temperature;humidity
75650;BME280;64245;51.282;22.494;2023-01-06T00:02:00;98955.09;;;1.23;91.72
75650;BME280;64245;51.282;22.494;2023-01-06T00:04:26;98979.31;;;1.17;89.56
75650;BME280;64245;51.282;22.494;2023-01-06T00:06:52;98993.84;;;1.26;88.78
75650;BME280;64245;51.282;22.494;2023-01-06T00:09:17;99009.84;;;1.24;89.71
75650;BME280;64245;51.282;22.494;2023-01-06T00:11:43;99006.16;;;1.13;89.49
75650;BME280;64245;51.282;22.494;2023-01-06T00:14:09;99005.94;;;1.16;89.35
75650;BME280;64245;51.282;22.494;2023-01-06T00:16:34;98999.69;;;1.02;89.90
75650;BME280;64245;51.282;22.494;2023-01-06T00:19:01;99036.09;;;1.15;88.32
75650;BME280;64245;51.282;22.494;2023-01-06T00:21:27;99035.31;;;1.13;89.69
75650;BME280;64245;51.282;22.494;2023-01-06T00:23:53;99026.53;;;0.96;89.52
75650;BME280;64245;51.282;22.494;2023-01-06T00:26:18;99046.81;;;0.97;88.65
75650;BME280;64245;51.282;22.494;2023-01-06T00:28:44;99057.16;;;1.02;89.58
75650;BME280;64245;51.282;22.494;2023-01-06T00:31:12;99066.34;;;0.81;90.85
75650;BME280;64245;51.282;22.494;2023-01-06T00:33:39;99079.78;;;0.78;91.82
75650;BME280;64245;51.282;22.494;2023-01-06T00:36:06;99073.16;;;0.71;92.30
75650;BME280;64245;51.282;22.494;2023-01-06T00:38:33;99092.38;;;0.74;93.08
75650;BME280;64245;51.282;22.494;2023-01-06T00:41:07;99087.69;;;0.63;91.36
75650;BME280;64245;51.282;22.494;2023-01-06T00:43:54;99092.91;;;0.65;91.16
75650;BME280;64245;51.282;22.494;2023-01-06T00:46:19;99108.41;;;0.57;90.86
75650;BME280;64245;51.282;22.494;2023-01-06T00:48:45;99124.19;;;0.58;90.09
75650;BME280;64245;51.282;22.494;2023-01-06T00:51:11;99127.69;;;0.59;90.31
75650;BME280;64245;51.282;22.494;2023-01-06T00:53:37;99133.19;;;0.56;90.81
75650;BME280;64245;51.282;22.494;2023-01-06T00:56:02;99116.22;;;0.58;89.46
75650;BME280;64245;51.282;22.494;2023-01-06T00:58:30;99158.38;;;0.63;90.30
75650;BME280;64245;51.282;22.494;2023-01-06T01:00:55;99128.28;;;0.64;89.72
75650;BME280;64245;51.282;22.494;2023-01-06T01:03:22;99158.81;;;0.71;89.72
75650;BME280;64245;51.282;22.494;2023-01-06T01:05:48;99153.69;;;0.68;88.73
75650;BME280;64245;51.282;22.494;2023-01-06T01:08:13;99156.16;;;0.55;89.12
75650;BME280;64245;51.282;22.494;2023-01-06T01:10:39;99167.88;;;0.51;88.57
75650;BME280;64245;51.282;22.494;2023-01-06T01:13:05;99193.69;;;0.63;89.62
75650;BME280;64245;51.282;22.494;2023-01-06T01:15:30;99180.88;;;0.56;89.74
75650;BME280;64245;51.282;22.494;2023-01-06T01:17:56;99180.94;;;0.54;88.90
75650;BME280;64245;51.282;22.494;2023-01-06T01:20:21;99211.53;;;0.60;89.61
75650;BME280;64245;51.282;22.494;2023-01-06T01:22:47;99214.03;;;0.63;88.71
75650;BME280;64245;51.282;22.494;2023-01-06T01:25:13;99203.50;;;0.46;88.90
75650;BME280;64245;51.282;22.494;2023-01-06T01:27:39;99212.75;;;0.54;88.22
75650;BME280;64245;51.282;22.494;2023-01-06T01:30:05;99226.66;;;0.58;88.80
75650;BME280;64245;51.282;22.494;2023-01-06T01:32:31;99232.72;;;0.60;88.84
75650;BME280;64245;51.282;22.494;2023-01-06T01:34:56;99229.59;;;0.53;89.52
75650;BME280;64245;51.282;22.494;2023-01-06T01:37:22;99239.50;;;0.50;89.24
75650;BME280;64245;51.282;22.494;2023-01-06T01:39:48;99236.22;;;0.45;90.41
75650;BME280;64245;51.282;22.494;2023-01-06T01:42:16;99247.06;;;0.40;89.86
75650;BME280;64245;51.282;22.494;2023-01-06T01:45:05;99244.38;;;0.24;90.28
75650;BME280;64245;51.282;22.494;2023-01-06T01:47:43;99261.59;;;0.33;90.77
75650;BME280;64245;51.282;22.494;2023-01-06T01:51:00;99264.00;;;0.38;91.38
75650;BME280;64245;51.282;22.494;2023-01-06T01:53:08;99272.03;;;0.36;91.24
75650;BME280;64245;51.282;22.494;2023-01-06T01:55:36;99254.34;;;0.19;92.02
75650;BME280;64245;51.282;22.494;2023-01-06T01:58:08;99266.66;;;0.20;91.50
75650;BME280;64245;51.282;22.494;2023-01-06T02:00:35;99279.75;;;0.23;91.41
75650;BME280;64245;51.282;22.494;2023-01-06T02:03:03;99264.50;;;0.11;91.29
75650;BME280;64245;51.282;22.494;2023-01-06T02:05:32;99283.16;;;0.25;91.27
75650;BME280;64245;51.282;22.494;2023-01-06T02:08:01;99285.69;;;0.11;91.40
75650;BME280;64245;51.282;22.494;2023-01-06T02:10:29;99300.94;;;0.23;91.90
75650;BME280;64245;51.282;22.494;2023-01-06T02:12:57;99305.44;;;0.21;91.95
75650;BME280;64245;51.282;22.494;2023-01-06T02:15:26;99311.28;;;0.28;91.51
75650;BME280;64245;51.282;22.494;2023-01-06T02:18:04;99310.59;;;0.24;91.66
75650;BME280;64245;51.282;22.494;2023-01-06T02:23:16;99318.25;;;0.13;91.36
75650;BME280;64245;51.282;22.494;2023-01-06T02:31:19;99325.69;;;0.22;91.29
75650;BME280;64245;51.282;22.494;2023-01-06T02:34:25;99321.03;;;0.10;91.28
75650;BME280;64245;51.282;22.494;2023-01-06T02:42:18;99352.97;;;0.24;91.23
75650;BME280;64245;51.282;22.494;2023-01-06T02:45:12;99368.00;;;0.24;91.07
75650;BME280;64245;51.282;22.494;2023-01-06T02:47:48;99383.97;;;0.22;90.84
75650;BME280;64245;51.282;22.494;2023-01-06T02:50:23;99374.69;;;0.14;91.61
75650;BME280;64245;51.282;22.494;2023-01-06T02:52:59;99385.66;;;0.23;91.67
75650;BME280;64245;51.282;22.494;2023-01-06T02:55:41;99382.09;;;0.07;91.12
75650;BME280;64245;51.282;22.494;2023-01-06T03:00:56;99382.72;;;-0.05;90.51
75650;BME280;64245;51.282;22.494;2023-01-06T03:03:27;99392.38;;;0.13;90.92
75650;BME280;64245;51.282;22.494;2023-01-06T03:05:58;99385.28;;;-0.04;90.77
75650;BME280;64245;51.282;22.494;2023-01-06T03:08:27;99401.31;;;-0.07;91.69
75650;BME280;64245;51.282;22.494;2023-01-06T03:10:56;99428.38;;;0.17;91.21
75650;BME280;64245;51.282;22.494;2023-01-06T03:13:43;99421.28;;;0.18;91.11
75650;BME280;64245;51.282;22.494;2023-01-06T03:16:11;99417.66;;;0.02;91.35
75650;BME280;64245;51.282;22.494;2023-01-06T03:18:38;99405.53;;;-0.03;91.11
75650;BME280;64245;51.282;22.494;2023-01-06T03:21:10;99419.72;;;0.14;90.49
75650;BME280;64245;51.282;22.494;2023-01-06T03:23:39;99436.31;;;0.17;89.71
75650;BME280;64245;51.282;22.494;2023-01-06T03:26:05;99438.88;;;0.19;90.01
75650;BME280;64245;51.282;22.494;2023-01-06T03:28:30;99433.19;;;0.09;90.42
75650;BME280;64245;51.282;22.494;2023-01-06T03:31:18;99442.75;;;0.12;90.43
75650;BME280;64245;51.282;22.494;2023-01-06T03:34:29;99455.22;;;0.10;90.16
75650;BME280;64245;51.282;22.494;2023-01-06T03:37:18;99462.88;;;0.16;90.02
75650;BME280;64245;51.282;22.494;2023-01-06T03:42:28;99463.72;;;0.16;90.82
75650;BME280;64245;51.282;22.494;2023-01-06T03:45:40;99459.50;;;0.12;90.11
75650;BME280;64245;51.282;22.494;2023-01-06T03:48:24;99470.31;;;0.08;90.64
75650;BME280;64245;51.282;22.494;2023-01-06T03:53:45;99480.13;;;0.06;90.30
75650;BME280;64245;51.282;22.494;2023-01-06T03:56:27;99480.84;;;0.09;90.58
75650;BME280;64245;51.282;22.494;2023-01-06T03:58:57;99477.13;;;0.13;89.95
75650;BME280;64245;51.282;22.494;2023-01-06T04:01:24;99477.34;;;0.09;89.19
75650;BME280;64245;51.282;22.494;2023-01-06T04:03:52;99471.47;;;0.02;90.17
75650;BME280;64245;51.282;22.494;2023-01-06T04:06:19;99478.34;;;0.06;89.86
75650;BME280;64245;51.282;22.494;2023-01-06T04:08:45;99499.38;;;0.09;89.77
75650;BME280;64245;51.282;22.494;2023-01-06T04:11:10;99501.22;;;0.07;90.02
75650;BME280;64245;51.282;22.494;2023-01-06T04:13:56;99505.66;;;0.07;90.36
75650;BME280;64245;51.282;22.494;2023-01-06T04:16:21;99511.09;;;0.04;90.65
75650;BME280;64245;51.282;22.494;2023-01-06T04:18:47;99500.31;;;-0.11;90.99
75650;BME280;64245;51.282;22.494;2023-01-06T04:21:13;99491.88;;;-0.19;91.56
75650;BME280;64245;51.282;22.494;2023-01-06T04:23:38;99538.69;;;-0.01;90.75
75650;BME280;64245;51.282;22.494;2023-01-06T04:26:04;99521.94;;;-0.01;90.91
75650;BME280;64245;51.282;22.494;2023-01-06T04:28:30;99530.94;;;-0.05;91.09
75650;BME280;64245;51.282;22.494;2023-01-06T04:31:00;99539.09;;;-0.10;91.09
75650;BME280;64245;51.282;22.494;2023-01-06T04:33:26;99529.03;;;-0.20;92.09
75650;BME280;64245;51.282;22.494;2023-01-06T04:35:52;99540.69;;;-0.06;91.44
75650;BME280;64245;51.282;22.494;2023-01-06T04:38:18;99539.75;;;-0.05;91.18
75650;BME280;64245;51.282;22.494;2023-01-06T04:40:43;99542.88;;;-0.15;91.57
75650;BME280;64245;51.282;22.494;2023-01-06T04:43:09;99551.53;;;-0.12;91.47
75650;BME280;64245;51.282;22.494;2023-01-06T04:45:41;99544.75;;;-0.17;91.41
75650;BME280;64245;51.282;22.494;2023-01-06T04:48:09;99556.97;;;-0.15;91.20
75650;BME280;64245;51.282;22.494;2023-01-06T04:50:35;99564.00;;;-0.14;91.11
75650;BME280;64245;51.282;22.494;2023-01-06T04:53:02;99566.22;;;-0.23;91.24
75650;BME280;64245;51.282;22.494;2023-01-06T04:55:27;99539.81;;;-0.25;90.96
75650;BME280;64245;51.282;22.494;2023-01-06T04:57:53;99553.72;;;-0.20;90.82
75650;BME280;64245;51.282;22.494;2023-01-06T05:00:19;99569.41;;;-0.17;90.42
75650;BME280;64245;51.282;22.494;2023-01-06T05:02:45;99568.94;;;-0.25;90.75
75650;BME280;64245;51.282;22.494;2023-01-06T05:05:11;99572.22;;;-0.39;90.69
75650;BME280;64245;51.282;22.494;2023-01-06T05:07:38;99556.91;;;-0.32;91.07
75650;BME280;64245;51.282;22.494;2023-01-06T05:10:05;99563.06;;;-0.31;90.96
75650;BME280;64245;51.282;22.494;2023-01-06T05:12:32;99579.72;;;-0.29;90.61
75650;BME280;64245;51.282;22.494;2023-01-06T05:14:57;99570.50;;;-0.40;90.20
75650;BME280;64245;51.282;22.494;2023-01-06T05:17:23;99589.50;;;-0.31;90.14
75650;BME280;64245;51.282;22.494;2023-01-06T05:19:49;99582.78;;;-0.39;89.89
75650;BME280;64245;51.282;22.494;2023-01-06T05:22:15;99570.41;;;-0.38;89.66
75650;BME280;64245;51.282;22.494;2023-01-06T05:24:41;99583.78;;;-0.41;89.85
75650;BME280;64245;51.282;22.494;2023-01-06T05:27:07;99588.84;;;-0.37;89.54
75650;BME280;64245;51.282;22.494;2023-01-06T05:29:33;99597.81;;;-0.39;89.32
75650;BME280;64245;51.282;22.494;2023-01-06T05:31:59;99588.75;;;-0.54;89.62
75650;BME280;64245;51.282;22.494;2023-01-06T05:34:24;99597.22;;;-0.46;90.18
75650;BME280;64245;51.282;22.494;2023-01-06T05:36:50;99596.72;;;-0.35;89.20
75650;BME280;64245;51.282;22.494;2023-01-06T05:39:16;99597.88;;;-0.41;90.31
75650;BME280;64245;51.282;22.494;2023-01-06T05:41:41;99607.97;;;-0.30;89.61
75650;BME280;64245;51.282;22.494;2023-01-06T05:44:07;99613.53;;;-0.36;88.93
75650;BME280;64245;51.282;22.494;2023-01-06T05:46:33;99597.81;;;-0.39;89.20
75650;BME280;64245;51.282;22.494;2023-01-06T05:48:59;99616.09;;;-0.35;89.13
75650;BME280;64245;51.282;22.494;2023-01-06T05:51:25;99603.00;;;-0.38;90.00
75650;BME280;64245;51.282;22.494;2023-01-06T05:53:50;99603.09;;;-0.39;89.14
75650;BME280;64245;51.282;22.494;2023-01-06T05:56:18;99634.44;;;-0.30;89.15
75650;BME280;64245;51.282;22.494;2023-01-06T05:58:46;99637.94;;;-0.29;89.80
75650;BME280;64245;51.282;22.494;2023-01-06T06:01:24;99634.38;;;-0.28;89.51
75650;BME280;64245;51.282;22.494;2023-01-06T06:03:51;99651.91;;;-0.26;90.23
75650;BME280;64245;51.282;22.494;2023-01-06T06:06:18;99643.16;;;-0.28;89.45
75650;BME280;64245;51.282;22.494;2023-01-06T06:08:44;99649.56;;;-0.33;89.75
75650;BME280;64245;51.282;22.494;2023-01-06T06:11:12;99653.75;;;-0.28;89.94
75650;BME280;64245;51.282;22.494;2023-01-06T06:13:38;99663.66;;;-0.33;89.54
75650;BME280;64245;51.282;22.494;2023-01-06T06:16:11;99671.16;;;-0.22;89.77
75650;BME280;64245;51.282;22.494;2023-01-06T06:18:37;99661.94;;;-0.34;89.62
75650;BME280;64245;51.282;22.494;2023-01-06T06:21:11;99649.63;;;-0.35;88.69
75650;BME280;64245;51.282;22.494;2023-01-06T06:23:37;99666.13;;;-0.28;89.12
75650;BME280;64245;51.282;22.494;2023-01-06T06:26:03;99655.78;;;-0.35;90.47
75650;BME280;64245;51.282;22.494;2023-01-06T06:28:30;99666.28;;;-0.13;89.22
75650;BME280;64245;51.282;22.494;2023-01-06T06:31:08;99665.44;;;-0.13;88.87
75650;BME280;64245;51.282;22.494;2023-01-06T06:33:34;99675.13;;;-0.32;89.55
75650;BME280;64245;51.282;22.494;2023-01-06T06:36:00;99670.69;;;-0.32;88.08
75650;BME280;64245;51.282;22.494;2023-01-06T06:38:26;99676.38;;;-0.21;87.61
75650;BME280;64245;51.282;22.494;2023-01-06T06:40:52;99667.19;;;-0.32;87.61
75650;BME280;64245;51.282;22.494;2023-01-06T06:43:19;99684.03;;;-0.15;87.69
75650;BME280;64245;51.282;22.494;2023-01-06T06:45:46;99689.19;;;-0.32;86.76
75650;BME280;64245;51.282;22.494;2023-01-06T06:48:12;99690.72;;;-0.26;86.99
75650;BME280;64245;51.282;22.494;2023-01-06T06:50:38;99668.03;;;-0.52;86.65
75650;BME280;64245;51.282;22.494;2023-01-06T06:53:04;99698.41;;;-0.41;87.28
75650;BME280;64245;51.282;22.494;2023-01-06T06:55:31;99695.41;;;-0.33;86.33
75650;BME280;64245;51.282;22.494;2023-01-06T06:57:57;99715.91;;;-0.38;85.92
75650;BME280;64245;51.282;22.494;2023-01-06T07:00:23;99713.56;;;-0.44;86.25
75650;BME280;64245;51.282;22.494;2023-01-06T07:02:49;99715.59;;;-0.30;86.41
75650;BME280;64245;51.282;22.494;2023-01-06T07:05:16;99708.84;;;-0.38;86.38
75650;BME280;64245;51.282;22.494;2023-01-06T07:07:42;99693.91;;;-0.59;85.63
75650;BME280;64245;51.282;22.494;2023-01-06T07:10:12;99704.28;;;-0.54;86.25
75650;BME280;64245;51.282;22.494;2023-01-06T07:12:38;99709.97;;;-0.63;86.61
75650;BME280;64245;51.282;22.494;2023-01-06T07:15:04;99720.16;;;-0.54;86.53
75650;BME280;64245;51.282;22.494;2023-01-06T07:17:30;99736.44;;;-0.43;86.05
75650;BME280;64245;51.282;22.494;2023-01-06T07:19:56;99730.59;;;-0.51;86.87
75650;BME280;64245;51.282;22.494;2023-01-06T07:22:21;99742.09;;;-0.52;86.68
75650;BME280;64245;51.282;22.494;2023-01-06T07:24:47;99747.81;;;-0.41;87.44
75650;BME280;64245;51.282;22.494;2023-01-06T07:27:12;99747.53;;;-0.35;86.62
75650;BME280;64245;51.282;22.494;2023-01-06T07:29:38;99728.88;;;-0.52;86.93
75650;BME280;64245;51.282;22.494;2023-01-06T07:32:04;99747.53;;;-0.55;86.31
75650;BME280;64245;51.282;22.494;2023-01-06T07:34:30;99741.19;;;-0.51;86.38
75650;BME280;64245;51.282;22.494;2023-01-06T07:36:56;99771.56;;;-0.40;86.36
75650;BME280;64245;51.282;22.494;2023-01-06T07:39:22;99763.09;;;-0.48;86.60
75650;BME280;64245;51.282;22.494;2023-01-06T07:41:47;99762.97;;;-0.45;85.56
75650;BME280;64245;51.282;22.494;2023-01-06T07:44:13;99752.88;;;-0.57;85.12
75650;BME280;64245;51.282;22.494;2023-01-06T07:46:38;99770.22;;;-0.50;85.77
75650;BME280;64245;51.282;22.494;2023-01-06T07:49:04;99776.53;;;-0.32;87.31
75650;BME280;64245;51.282;22.494;2023-01-06T07:51:30;99779.22;;;-0.33;87.09
75650;BME280;64245;51.282;22.494;2023-01-06T07:53:55;99764.06;;;-0.50;86.02
75650;BME280;64245;51.282;22.494;2023-01-06T07:56:21;99788.09;;;-0.35;86.23
75650;BME280;64245;51.282;22.494;2023-01-06T07:58:48;99783.03;;;-0.39;87.17
75650;BME280;64245;51.282;22.494;2023-01-06T08:01:14;99781.13;;;-0.37;86.60
75650;BME280;64245;51.282;22.494;2023-01-06T08:03:39;99769.25;;;-0.47;86.18
75650;BME280;64245;51.282;22.494;2023-01-06T08:06:09;99796.44;;;-0.44;86.28
75650;BME280;64245;51.282;22.494;2023-01-06T08:08:39;99799.75;;;-0.39;86.85
75650;BME280;64245;51.282;22.494;2023-01-06T08:11:06;99809.72;;;-0.45;86.43
75650;BME280;64245;51.282;22.494;2023-01-06T08:13:33;99794.03;;;-0.50;86.54
75650;BME280;64245;51.282;22.494;2023-01-06T08:16:09;99805.09;;;-0.40;86.57
75650;BME280;64245;51.282;22.494;2023-01-06T08:18:36;99808.16;;;-0.29;86.27
75650;BME280;64245;51.282;22.494;2023-01-06T08:21:03;99803.22;;;-0.38;86.17
75650;BME280;64245;51.282;22.494;2023-01-06T08:23:29;99801.59;;;-0.41;85.27
75650;BME280;64245;51.282;22.494;2023-01-06T08:26:03;99795.44;;;-0.41;85.85
75650;BME280;64245;51.282;22.494;2023-01-06T08:28:29;99794.09;;;-0.51;86.43
75650;BME280;64245;51.282;22.494;2023-01-06T08:30:54;99797.53;;;-0.49;85.65
75650;BME280;64245;51.282;22.494;2023-01-06T08:33:20;99805.72;;;-0.55;85.90
75650;BME280;64245;51.282;22.494;2023-01-06T08:35:49;99793.28;;;-0.53;85.85
75650;BME280;64245;51.282;22.494;2023-01-06T08:38:14;99815.13;;;-0.48;86.28
75650;BME280;64245;51.282;22.494;2023-01-06T08:40:40;99798.63;;;-0.55;87.61
75650;BME280;64245;51.282;22.494;2023-01-06T08:43:06;99800.88;;;-0.44;85.89
75650;BME280;64245;51.282;22.494;2023-01-06T08:45:31;99818.56;;;-0.24;86.99
75650;BME280;64245;51.282;22.494;2023-01-06T08:47:57;99813.91;;;-0.40;84.84
75650;BME280;64245;51.282;22.494;2023-01-06T08:50:22;99809.91;;;-0.50;84.48
75650;BME280;64245;51.282;22.494;2023-01-06T08:52:48;99825.72;;;-0.48;85.74
75650;BME280;64245;51.282;22.494;2023-01-06T08:55:14;99839.63;;;-0.43;85.25
75650;BME280;64245;51.282;22.494;2023-01-06T08:57:40;99813.91;;;-0.40;83.99
75650;BME280;64245;51.282;22.494;2023-01-06T09:00:06;99825.78;;;-0.50;84.26
75650;BME280;64245;51.282;22.494;2023-01-06T09:02:32;99854.38;;;-0.38;85.24
75650;BME280;64245;51.282;22.494;2023-01-06T09:04:57;99839.50;;;-0.40;84.70
75650;BME280;64245;51.282;22.494;2023-01-06T09:07:23;99843.41;;;-0.28;83.97
75650;BME280;64245;51.282;22.494;2023-01-06T09:09:49;99842.75;;;-0.33;83.63
75650;BME280;64245;51.282;22.494;2023-01-06T09:12:15;99821.66;;;-0.57;84.89
75650;BME280;64245;51.282;22.494;2023-01-06T09:14:40;99837.56;;;-0.37;84.51
75650;BME280;64245;51.282;22.494;2023-01-06T09:17:06;99820.44;;;-0.48;84.34
75650;BME280;64245;51.282;22.494;2023-01-06T09:19:31;99816.13;;;-0.73;83.58
75650;BME280;64245;51.282;22.494;2023-01-06T09:21:57;99826.28;;;-0.62;83.40
75650;BME280;64245;51.282;22.494;2023-01-06T09:24:23;99832.91;;;-0.52;83.53
75650;BME280;64245;51.282;22.494;2023-01-06T09:26:48;99825.53;;;-0.65;82.95
75650;BME280;64245;51.282;22.494;2023-01-06T09:29:14;99829.63;;;-0.37;83.21
75650;BME280;64245;51.282;22.494;2023-01-06T09:31:40;99830.31;;;-0.31;81.91
75650;BME280;64245;51.282;22.494;2023-01-06T09:34:05;99815.25;;;-0.51;81.71
75650;BME280;64245;51.282;22.494;2023-01-06T09:36:31;99832.09;;;-0.54;82.13
75650;BME280;64245;51.282;22.494;2023-01-06T09:38:59;99841.41;;;-0.44;83.04
75650;BME280;64245;51.282;22.494;2023-01-06T09:41:35;99839.50;;;-0.62;83.20
75650;BME280;64245;51.282;22.494;2023-01-06T09:44:18;99844.16;;;-0.68;83.21
75650;BME280;64245;51.282;22.494;2023-01-06T09:46:47;99839.13;;;-0.75;83.07
75650;BME280;64245;51.282;22.494;2023-01-06T09:52:14;99845.84;;;-0.66;81.98
75650;BME280;64245;51.282;22.494;2023-01-06T09:54:52;99835.13;;;-0.63;81.62
75650;BME280;64245;51.282;22.494;2023-01-06T09:57:28;99847.31;;;-0.59;81.74
75650;BME280;64245;51.282;22.494;2023-01-06T10:00:01;99835.03;;;-0.60;82.31
75650;BME280;64245;51.282;22.494;2023-01-06T10:02:36;99821.28;;;-0.70;83.24
75650;BME280;64245;51.282;22.494;2023-01-06T10:05:07;99801.97;;;-0.50;82.90
75650;BME280;64245;51.282;22.494;2023-01-06T10:07:48;99820.25;;;-0.65;81.93
75650;BME280;64245;51.282;22.494;2023-01-06T10:10:37;99833.66;;;-0.48;82.92
75650;BME280;64245;51.282;22.494;2023-01-06T10:16:11;99832.72;;;-0.47;81.81
75650;BME280;64245;51.282;22.494;2023-01-06T10:24:27;99827.69;;;-0.53;81.68
75650;BME280;64245;51.282;22.494;2023-01-06T10:26:56;99824.38;;;-0.58;82.21
75650;BME280;64245;51.282;22.494;2023-01-06T10:29:24;99831.69;;;-0.65;82.59
75650;BME280;64245;51.282;22.494;2023-01-06T10:31:53;99816.13;;;-0.73;82.50
75650;BME280;64245;51.282;22.494;2023-01-06T10:34:25;99819.38;;;-0.66;83.71
75650;BME280;64245;51.282;22.494;2023-01-06T10:37:10;99813.66;;;-0.55;84.24
75650;BME280;64245;51.282;22.494;2023-01-06T10:39:41;99804.69;;;-0.51;82.85
75650;BME280;64245;51.282;22.494;2023-01-06T10:45:01;99806.72;;;-0.58;82.10
75650;BME280;64245;51.282;22.494;2023-01-06T10:47:29;99802.47;;;-0.62;82.12
75650;BME280;64245;51.282;22.494;2023-01-06T10:49:56;99805.94;;;-0.60;82.63
75650;BME280;64245;51.282;22.494;2023-01-06T10:52:23;99804.72;;;-0.31;83.23
75650;BME280;64245;51.282;22.494;2023-01-06T10:54:51;99809.94;;;-0.29;83.98
75650;BME280;64245;51.282;22.494;2023-01-06T10:57:21;99789.47;;;-0.46;83.03
75650;BME280;64245;51.282;22.494;2023-01-06T11:00:18;99820.66;;;-0.32;81.94
75650;BME280;64245;51.282;22.494;2023-01-06T11:02:50;99812.13;;;-0.39;81.54
75650;BME280;64245;51.282;22.494;2023-01-06T11:05:22;99802.03;;;-0.51;82.37
75650;BME280;64245;51.282;22.494;2023-01-06T11:10:44;99822.94;;;-0.45;83.17
75650;BME280;64245;51.282;22.494;2023-01-06T11:13:31;99829.47;;;-0.54;81.97
75650;BME280;64245;51.282;22.494;2023-01-06T11:16:02;99828.34;;;-0.70;83.04
75650;BME280;64245;51.282;22.494;2023-01-06T11:18:30;99815.03;;;-0.67;82.93
75650;BME280;64245;51.282;22.494;2023-01-06T11:21:11;99830.88;;;-0.67;83.00
75650;BME280;64245;51.282;22.494;2023-01-06T11:23:39;99831.50;;;-0.82;83.51
75650;BME280;64245;51.282;22.494;2023-01-06T11:28:31;99827.69;;;-0.53;83.80
75650;BME280;64245;51.282;22.494;2023-01-06T11:31:01;99820.53;;;-0.51;83.46
75650;BME280;64245;51.282;22.494;2023-01-06T11:33:30;99813.53;;;-0.52;82.87
75650;BME280;64245;51.282;22.494;2023-01-06T11:35:57;99797.78;;;-0.55;83.15
75650;BME280;64245;51.282;22.494;2023-01-06T11:38:30;99802.31;;;-0.37;82.16
75650;BME280;64245;51.282;22.494;2023-01-06T11:40:56;99821.50;;;-0.32;81.96
75650;BME280;64245;51.282;22.494;2023-01-06T11:43:22;99817.03;;;-0.30;82.89
75650;BME280;64245;51.282;22.494;2023-01-06T11:45:56;99819.91;;;-0.36;83.54
75650;BME280;64245;51.282;22.494;2023-01-06T11:48:40;99811.97;;;-0.36;81.84
75650;BME280;64245;51.282;22.494;2023-01-06T11:51:07;99822.88;;;-0.22;81.89
75650;BME280;64245;51.282;22.494;2023-01-06T11:53:34;99808.69;;;-0.41;82.44
75650;BME280;64245;51.282;22.494;2023-01-06T12:01:26;99800.50;;;-0.15;81.65
75650;BME280;64245;51.282;22.494;2023-01-06T12:03:59;99812.50;;;-0.06;82.11
75650;BME280;64245;51.282;22.494;2023-01-06T12:06:40;99801.97;;;-0.08;84.46
75650;BME280;64245;51.282;22.494;2023-01-06T12:09:23;99804.53;;;-0.06;83.51
75650;BME280;64245;51.282;22.494;2023-01-06T12:11:51;99789.09;;;0.04;82.03
75650;BME280;64245;51.282;22.494;2023-01-06T12:14:23;99789.25;;;0.00;83.55
75650;BME280;64245;51.282;22.494;2023-01-06T12:17:13;99789.38;;;0.18;81.93
75650;BME280;64245;51.282;22.494;2023-01-06T12:19:54;99774.22;;;0.01;83.29
75650;BME280;64245;51.282;22.494;2023-01-06T12:24:58;99773.81;;;0.10;82.38
75650;BME280;64245;51.282;22.494;2023-01-06T12:27:32;99784.00;;;0.19;83.02
75650;BME280;64245;51.282;22.494;2023-01-06T12:29:59;99772.69;;;0.36;81.58
75650;BME280;64245;51.282;22.494;2023-01-06T12:32:36;99747.09;;;0.16;81.70
75650;BME280;64245;51.282;22.494;2023-01-06T12:35:04;99772.75;;;0.34;81.47
75650;BME280;64245;51.282;22.494;2023-01-06T12:37:36;99773.38;;;0.40;80.35
75650;BME280;64245;51.282;22.494;2023-01-06T12:40:12;99761.66;;;0.45;79.49
75650;BME280;64245;51.282;22.494;2023-01-06T12:42:44;99753.63;;;0.47;80.53
75650;BME280;64245;51.282;22.494;2023-01-06T12:45:18;99737.97;;;0.22;80.68
75650;BME280;64245;51.282;22.494;2023-01-06T12:47:54;99762.50;;;0.46;81.44
75650;BME280;64245;51.282;22.494;2023-01-06T12:50:41;99748.78;;;0.38;79.60
75650;BME280;64245;51.282;22.494;2023-01-06T12:53:19;99768.50;;;0.30;80.17
75650;BME280;64245;51.282;22.494;2023-01-06T12:56:12;99783.53;;;0.30;80.23
75650;BME280;64245;51.282;22.494;2023-01-06T13:01:47;99781.94;;;0.26;80.42
75650;BME280;64245;51.282;22.494;2023-01-06T13:07:31;99765.09;;;-0.12;82.12
75650;BME280;64245;51.282;22.494;2023-01-06T13:10:33;99773.81;;;0.10;81.53
75650;BME280;64245;51.282;22.494;2023-01-06T13:13:36;99773.28;;;0.02;82.01
75650;BME280;64245;51.282;22.494;2023-01-06T13:16:16;99780.72;;;-0.06;83.66
75650;BME280;64245;51.282;22.494;2023-01-06T13:18:53;99772.38;;;0.03;83.26
75650;BME280;64245;51.282;22.494;2023-01-06T13:21:22;99782.81;;;0.06;82.87
75650;BME280;64245;51.282;22.494;2023-01-06T13:24:04;99788.72;;;0.13;81.61
75650;BME280;64245;51.282;22.494;2023-01-06T13:32:41;99791.63;;;0.07;82.89
75650;BME280;64245;51.282;22.494;2023-01-06T13:35:23;99786.38;;;-0.15;83.13
75650;BME280;64245;51.282;22.494;2023-01-06T13:40:38;99789.25;;;0.00;83.16
75650;BME280;64245;51.282;22.494;2023-01-06T13:43:05;99790.31;;;-0.04;83.76
75650;BME280;64245;51.282;22.494;2023-01-06T13:45:42;99774.09;;;-0.16;83.70
75650;BME280;64245;51.282;22.494;2023-01-06T13:48:23;99786.06;;;0.13;82.28
75650;BME280;64245;51.282;22.494;2023-01-06T13:50:49;99787.50;;;0.20;83.55
75650;BME280;64245;51.282;22.494;2023-01-06T13:53:19;99774.69;;;0.11;81.69
75650;BME280;64245;51.282;22.494;2023-01-06T13:55:46;99770.44;;;0.07;83.17
75650;BME280;64245;51.282;22.494;2023-01-06T14:03:37;99788.84;;;-0.31;84.59
75650;BME280;64245;51.282;22.494;2023-01-06T14:06:03;99789.56;;;-0.27;85.95
75650;BME280;64245;51.282;22.494;2023-01-06T14:08:33;99786.78;;;-0.45;84.89
75650;BME280;64245;51.282;22.494;2023-01-06T14:11:05;99796.38;;;-0.42;85.50
75650;BME280;64245;51.282;22.494;2023-01-06T14:13:37;99786.25;;;-0.32;86.29
75650;BME280;64245;51.282;22.494;2023-01-06T14:16:07;99790.81;;;-0.16;86.00
75650;BME280;64245;51.282;22.494;2023-01-06T14:18:37;99792.28;;;-0.09;85.26